sensor_id;sensor_type;location;lat;lon;timestamp;P1;durP1;ratioP1;P2;durP2;ratioP2
16401;SDS011;8310;44.626;11.176;2022-12-29T00:00:31;71.32;;;39.15;;
16401;SDS011;8310;44.626;11.176;2022-12-29T00:03:00;71.45;;;40.38;;
16401;SDS011;8310;44.626;11.176;2022-12-29T00:05:27;68.47;;;40.25;;
16401;SDS011;8310;44.626;11.176;2022-12-29T00:07:55;73.82;;;41.05;;
16401;SDS011;8310;44.626;11.176;2022-12-29T00:10:22;74.47;;;40.92;;
16401;SDS011;8310;44.626;11.176;2022-12-29T00:12:51;76.30;;;40.65;;
16401;SDS011;8310;44.626;11.176;2022-12-29T00:15:35;71.63;;;40.53;;
16401;SDS011;8310;44.626;11.176;2022-12-29T00:18:06;72.97;;;41.17;;
16401;SDS011;8310;44.626;11.176;2022-12-29T00:20:34;77.10;;;43.33;;
16401;SDS011;8310;44.626;11.176;2022-12-29T00:23:23;76.15;;;41.78;;
16401;SDS011;8310;44.626;11.176;2022-12-29T00:26:12;75.32;;;42.40;;
16401;SDS011;8310;44.626;11.176;2022-12-29T00:29:00;74.82;;;41.42;;
16401;SDS011;8310;44.626;11.176;2022-12-29T00:31:56;78.25;;;43.70;;
16401;SDS011;8310;44.626;11.176;2022-12-29T00:34:40;79.28;;;43.35;;
16401;SDS011;8310;44.626;11.176;2022-12-29T00:37:24;73.60;;;40.17;;
16401;SDS011;8310;44.626;11.176;2022-12-29T00:40:06;77.18;;;41.80;;
16401;SDS011;8310;44.626;11.176;2022-12-29T00:42:51;74.97;;;41.03;;
16401;SDS011;8310;44.626;11.176;2022-12-29T00:45:37;80.47;;;44.63;;
16401;SDS011;8310;44.626;11.176;2022-12-29T00:48:07;80.93;;;41.63;;
16401;SDS011;8310;44.626;11.176;2022-12-29T00:50:34;74.35;;;42.60;;
16401;SDS011;8310;44.626;11.176;2022-12-29T00:53:00;77.13;;;42.40;;
16401;SDS011;8310;44.626;11.176;2022-12-29T00:55:28;79.72;;;42.80;;
16401;SDS011;8310;44.626;11.176;2022-12-29T00:57:55;78.97;;;41.88;;
16401;SDS011;8310;44.626;11.176;2022-12-29T01:00:23;80.63;;;42.97;;
16401;SDS011;8310;44.626;11.176;2022-12-29T01:02:53;74.60;;;41.30;;
16401;SDS011;8310;44.626;11.176;2022-12-29T01:05:21;75.15;;;43.13;;
16401;SDS011;8310;44.626;11.176;2022-12-29T01:07:48;75.97;;;42.40;;
16401;SDS011;8310;44.626;11.176;2022-12-29T01:10:16;73.82;;;40.33;;
16401;SDS011;8310;44.626;11.176;2022-12-29T01:12:42;76.18;;;42.25;;
16401;SDS011;8310;44.626;11.176;2022-12-29T01:15:11;79.88;;;45.25;;
16401;SDS011;8310;44.626;11.176;2022-12-29T01:17:40;73.88;;;42.22;;
16401;SDS011;8310;44.626;11.176;2022-12-29T01:20:10;76.65;;;43.03;;
16401;SDS011;8310;44.626;11.176;2022-12-29T01:22:38;73.30;;;40.75;;
16401;SDS011;8310;44.626;11.176;2022-12-29T01:25:07;69.20;;;42.13;;
16401;SDS011;8310;44.626;11.176;2022-12-29T01:27:35;75.10;;;42.45;;
16401;SDS011;8310;44.626;11.176;2022-12-29T01:30:03;79.60;;;42.95;;
16401;SDS011;8310;44.626;11.176;2022-12-29T01:32:32;69.63;;;41.03;;
16401;SDS011;8310;44.626;11.176;2022-12-29T01:34:59;75.85;;;42.65;;
16401;SDS011;8310;44.626;11.176;2022-12-29T01:37:28;74.53;;;40.25;;
16401;SDS011;8310;44.626;11.176;2022-12-29T01:39:56;73.63;;;42.10;;
16401;SDS011;8310;44.626;11.176;2022-12-29T01:42:24;69.30;;;38.95;;
16401;SDS011;8310;44.626;11.176;2022-12-29T01:44:53;67.35;;;39.55;;
16401;SDS011;8310;44.626;11.176;2022-12-29T01:47:34;72.18;;;39.22;;
16401;SDS011;8310;44.626;11.176;2022-12-29T01:50:06;71.10;;;39.90;;
16401;SDS011;8310;44.626;11.176;2022-12-29T01:52:42;72.93;;;39.72;;
16401;SDS011;8310;44.626;11.176;2022-12-29T01:55:16;72.50;;;38.17;;
16401;SDS011;8310;44.626;11.176;2022-12-29T01:57:45;69.80;;;39.45;;
16401;SDS011;8310;44.626;11.176;2022-12-29T02:00:16;69.45;;;38.53;;
16401;SDS011;8310;44.626;11.176;2022-12-29T02:02:46;70.93;;;40.05;;
16401;SDS011;8310;44.626;11.176;2022-12-29T02:05:19;72.20;;;40.45;;
16401;SDS011;8310;44.626;11.176;2022-12-29T02:07:53;71.60;;;40.60;;
16401;SDS011;8310;44.626;11.176;2022-12-29T02:10:21;66.18;;;38.63;;
16401;SDS011;8310;44.626;11.176;2022-12-29T02:12:52;67.22;;;39.80;;
16401;SDS011;8310;44.626;11.176;2022-12-29T02:15:21;69.53;;;38.17;;
16401;SDS011;8310;44.626;11.176;2022-12-29T02:18:03;72.82;;;40.15;;
16401;SDS011;8310;44.626;11.176;2022-12-29T02:21:04;71.35;;;39.85;;
16401;SDS011;8310;44.626;11.176;2022-12-29T02:24:19;65.63;;;40.30;;
16401;SDS011;8310;44.626;11.176;2022-12-29T02:27:13;66.72;;;37.80;;
16401;SDS011;8310;44.626;11.176;2022-12-29T02:30:05;70.72;;;39.50;;
16401;SDS011;8310;44.626;11.176;2022-12-29T02:32:41;67.18;;;38.53;;
16401;SDS011;8310;44.626;11.176;2022-12-29T02:35:27;68.75;;;38.47;;
16401;SDS011;8310;44.626;11.176;2022-12-29T02:38:03;66.47;;;39.33;;
16401;SDS011;8310;44.626;11.176;2022-12-29T02:40:40;66.35;;;38.92;;
16401;SDS011;8310;44.626;11.176;2022-12-29T02:43:17;67.95;;;38.88;;
16401;SDS011;8310;44.626;11.176;2022-12-29T02:45:52;64.85;;;37.60;;
16401;SDS011;8310;44.626;11.176;2022-12-29T02:48:25;60.13;;;36.05;;
16401;SDS011;8310;44.626;11.176;2022-12-29T02:50:59;65.70;;;37.33;;
16401;SDS011;8310;44.626;11.176;2022-12-29T02:53:29;65.20;;;37.55;;
16401;SDS011;8310;44.626;11.176;2022-12-29T02:56:16;69.75;;;37.80;;
16401;SDS011;8310;44.626;11.176;2022-12-29T02:58:44;69.32;;;41.20;;
16401;SDS011;8310;44.626;11.176;2022-12-29T03:01:23;64.45;;;39.20;;
16401;SDS011;8310;44.626;11.176;2022-12-29T03:06:56;71.88;;;41.03;;
16401;SDS011;8310;44.626;11.176;2022-12-29T03:09:32;75.10;;;39.78;;
16401;SDS011;8310;44.626;11.176;2022-12-29T03:12:08;66.65;;;39.33;;
16401;SDS011;8310;44.626;11.176;2022-12-29T03:14:46;67.72;;;38.75;;
16401;SDS011;8310;44.626;11.176;2022-12-29T03:17:38;65.38;;;38.58;;
16401;SDS011;8310;44.626;11.176;2022-12-29T03:20:16;64.38;;;38.95;;
16401;SDS011;8310;44.626;11.176;2022-12-29T03:22:50;72.32;;;39.70;;
16401;SDS011;8310;44.626;11.176;2022-12-29T03:25:22;72.28;;;40.22;;
16401;SDS011;8310;44.626;11.176;2022-12-29T03:27:56;69.22;;;38.90;;
16401;SDS011;8310;44.626;11.176;2022-12-29T03:30:29;67.78;;;39.33;;
16401;SDS011;8310;44.626;11.176;2022-12-29T03:33:01;70.50;;;39.75;;
16401;SDS011;8310;44.626;11.176;2022-12-29T03:35:34;70.32;;;40.05;;
16401;SDS011;8310;44.626;11.176;2022-12-29T03:38:05;76.38;;;41.72;;
16401;SDS011;8310;44.626;11.176;2022-12-29T03:40:38;71.95;;;41.05;;
16401;SDS011;8310;44.626;11.176;2022-12-29T03:43:09;71.00;;;40.58;;
16401;SDS011;8310;44.626;11.176;2022-12-29T03:45:38;70.72;;;40.20;;
16401;SDS011;8310;44.626;11.176;2022-12-29T03:48:06;74.20;;;40.30;;
16401;SDS011;8310;44.626;11.176;2022-12-29T03:50:35;72.97;;;40.17;;
16401;SDS011;8310;44.626;11.176;2022-12-29T03:53:03;69.72;;;39.95;;
16401;SDS011;8310;44.626;11.176;2022-12-29T03:55:30;78.05;;;41.58;;
16401;SDS011;8310;44.626;11.176;2022-12-29T03:57:58;78.60;;;42.13;;
16401;SDS011;8310;44.626;11.176;2022-12-29T04:00:26;72.10;;;40.67;;
16401;SDS011;8310;44.626;11.176;2022-12-29T04:02:53;72.22;;;39.90;;
16401;SDS011;8310;44.626;11.176;2022-12-29T04:05:21;73.35;;;40.47;;
16401;SDS011;8310;44.626;11.176;2022-12-29T04:07:51;74.13;;;41.35;;
16401;SDS011;8310;44.626;11.176;2022-12-29T04:10:18;79.95;;;42.42;;
16401;SDS011;8310;44.626;11.176;2022-12-29T04:12:46;75.05;;;42.40;;
16401;SDS011;8310;44.626;11.176;2022-12-29T04:15:15;68.82;;;40.03;;
16401;SDS011;8310;44.626;11.176;2022-12-29T04:17:43;71.97;;;39.30;;
16401;SDS011;8310;44.626;11.176;2022-12-29T04:20:11;71.03;;;39.88;;
16401;SDS011;8310;44.626;11.176;2022-12-29T04:23:01;75.50;;;41.72;;
16401;SDS011;8310;44.626;11.176;2022-12-29T04:25:30;73.32;;;41.47;;
16401;SDS011;8310;44.626;11.176;2022-12-29T04:27:59;73.75;;;42.20;;
16401;SDS011;8310;44.626;11.176;2022-12-29T04:30:26;75.40;;;41.97;;
16401;SDS011;8310;44.626;11.176;2022-12-29T04:32:54;75.60;;;42.47;;
16401;SDS011;8310;44.626;11.176;2022-12-29T04:35:22;69.13;;;40.17;;
16401;SDS011;8310;44.626;11.176;2022-12-29T04:37:50;72.78;;;40.67;;
16401;SDS011;8310;44.626;11.176;2022-12-29T04:40:19;76.47;;;42.67;;
16401;SDS011;8310;44.626;11.176;2022-12-29T04:42:48;77.85;;;41.70;;
16401;SDS011;8310;44.626;11.176;2022-12-29T04:45:15;76.93;;;41.42;;
16401;SDS011;8310;44.626;11.176;2022-12-29T04:47:43;71.60;;;40.72;;
16401;SDS011;8310;44.626;11.176;2022-12-29T04:50:11;73.60;;;40.65;;
16401;SDS011;8310;44.626;11.176;2022-12-29T04:52:39;72.03;;;40.55;;
16401;SDS011;8310;44.626;11.176;2022-12-29T04:55:07;78.07;;;41.75;;
16401;SDS011;8310;44.626;11.176;2022-12-29T04:57:37;74.80;;;40.60;;
16401;SDS011;8310;44.626;11.176;2022-12-29T05:00:05;69.78;;;40.22;;
16401;SDS011;8310;44.626;11.176;2022-12-29T05:02:35;70.93;;;40.17;;
16401;SDS011;8310;44.626;11.176;2022-12-29T05:05:04;71.07;;;40.35;;
16401;SDS011;8310;44.626;11.176;2022-12-29T05:07:32;71.45;;;39.88;;
16401;SDS011;8310;44.626;11.176;2022-12-29T05:10:00;74.30;;;41.92;;
16401;SDS011;8310;44.626;11.176;2022-12-29T05:12:29;71.95;;;40.75;;
16401;SDS011;8310;44.626;11.176;2022-12-29T05:14:59;74.95;;;42.40;;
16401;SDS011;8310;44.626;11.176;2022-12-29T05:17:28;73.75;;;41.38;;
16401;SDS011;8310;44.626;11.176;2022-12-29T05:19:56;73.47;;;41.00;;
16401;SDS011;8310;44.626;11.176;2022-12-29T05:22:24;74.68;;;41.38;;
16401;SDS011;8310;44.626;11.176;2022-12-29T05:24:52;71.40;;;40.75;;
16401;SDS011;8310;44.626;11.176;2022-12-29T05:27:19;67.55;;;38.80;;
16401;SDS011;8310;44.626;11.176;2022-12-29T05:29:47;72.38;;;41.15;;
16401;SDS011;8310;44.626;11.176;2022-12-29T05:32:16;69.40;;;40.67;;
16401;SDS011;8310;44.626;11.176;2022-12-29T05:34:44;76.82;;;41.33;;
16401;SDS011;8310;44.626;11.176;2022-12-29T05:37:12;74.45;;;41.58;;
16401;SDS011;8310;44.626;11.176;2022-12-29T05:39:39;78.88;;;42.55;;
16401;SDS011;8310;44.626;11.176;2022-12-29T05:42:07;71.45;;;41.00;;
16401;SDS011;8310;44.626;11.176;2022-12-29T05:44:36;74.82;;;40.08;;
16401;SDS011;8310;44.626;11.176;2022-12-29T05:47:04;68.50;;;41.25;;
16401;SDS011;8310;44.626;11.176;2022-12-29T05:49:36;73.72;;;40.22;;
16401;SDS011;8310;44.626;11.176;2022-12-29T05:52:04;78.18;;;41.08;;
16401;SDS011;8310;44.626;11.176;2022-12-29T05:54:31;73.72;;;40.40;;
16401;SDS011;8310;44.626;11.176;2022-12-29T05:56:59;79.18;;;41.35;;
16401;SDS011;8310;44.626;11.176;2022-12-29T05:59:27;71.68;;;39.45;;
16401;SDS011;8310;44.626;11.176;2022-12-29T06:01:55;82.25;;;42.33;;
16401;SDS011;8310;44.626;11.176;2022-12-29T06:04:22;78.68;;;42.25;;
16401;SDS011;8310;44.626;11.176;2022-12-29T06:06:51;80.97;;;42.15;;
16401;SDS011;8310;44.626;11.176;2022-12-29T06:09:19;71.55;;;41.80;;
16401;SDS011;8310;44.626;11.176;2022-12-29T06:11:47;75.20;;;42.03;;
16401;SDS011;8310;44.626;11.176;2022-12-29T06:14:15;85.97;;;42.90;;
16401;SDS011;8310;44.626;11.176;2022-12-29T06:16:43;76.15;;;40.15;;
16401;SDS011;8310;44.626;11.176;2022-12-29T06:19:12;78.35;;;40.95;;
16401;SDS011;8310;44.626;11.176;2022-12-29T06:21:39;71.10;;;40.30;;
16401;SDS011;8310;44.626;11.176;2022-12-29T06:24:09;81.20;;;42.17;;
16401;SDS011;8310;44.626;11.176;2022-12-29T06:26:36;73.90;;;40.67;;
16401;SDS011;8310;44.626;11.176;2022-12-29T06:29:05;70.38;;;40.50;;
16401;SDS011;8310;44.626;11.176;2022-12-29T06:31:33;71.57;;;39.70;;
16401;SDS011;8310;44.626;11.176;2022-12-29T06:34:01;72.35;;;40.45;;
16401;SDS011;8310;44.626;11.176;2022-12-29T06:36:29;74.93;;;41.03;;
16401;SDS011;8310;44.626;11.176;2022-12-29T06:38:57;71.57;;;40.47;;
16401;SDS011;8310;44.626;11.176;2022-12-29T06:41:26;74.70;;;41.67;;
16401;SDS011;8310;44.626;11.176;2022-12-29T06:43:54;72.65;;;39.45;;
16401;SDS011;8310;44.626;11.176;2022-12-29T06:46:22;79.50;;;39.22;;
16401;SDS011;8310;44.626;11.176;2022-12-29T06:48:50;69.10;;;39.92;;
16401;SDS011;8310;44.626;11.176;2022-12-29T06:51:19;74.88;;;39.15;;
16401;SDS011;8310;44.626;11.176;2022-12-29T06:53:47;71.20;;;38.17;;
16401;SDS011;8310;44.626;11.176;2022-12-29T06:56:15;69.32;;;38.40;;
16401;SDS011;8310;44.626;11.176;2022-12-29T06:58:45;75.68;;;38.90;;
16401;SDS011;8310;44.626;11.176;2022-12-29T07:01:13;72.25;;;38.30;;
16401;SDS011;8310;44.626;11.176;2022-12-29T07:03:40;72.07;;;37.42;;
16401;SDS011;8310;44.626;11.176;2022-12-29T07:06:09;73.53;;;38.92;;
16401;SDS011;8310;44.626;11.176;2022-12-29T07:08:36;75.03;;;41.40;;
16401;SDS011;8310;44.626;11.176;2022-12-29T07:11:05;68.38;;;38.63;;
16401;SDS011;8310;44.626;11.176;2022-12-29T07:13:35;73.78;;;40.92;;
16401;SDS011;8310;44.626;11.176;2022-12-29T07:16:09;77.57;;;41.15;;
16401;SDS011;8310;44.626;11.176;2022-12-29T07:18:37;67.68;;;37.80;;
16401;SDS011;8310;44.626;11.176;2022-12-29T07:21:05;67.93;;;37.10;;
16401;SDS011;8310;44.626;11.176;2022-12-29T07:23:32;70.30;;;37.80;;
16401;SDS011;8310;44.626;11.176;2022-12-29T07:26:00;69.68;;;38.47;;
16401;SDS011;8310;44.626;11.176;2022-12-29T07:28:28;70.68;;;37.65;;
16401;SDS011;8310;44.626;11.176;2022-12-29T07:30:59;71.97;;;38.00;;
16401;SDS011;8310;44.626;11.176;2022-12-29T07:33:29;74.20;;;39.33;;
16401;SDS011;8310;44.626;11.176;2022-12-29T07:35:58;71.38;;;38.78;;
16401;SDS011;8310;44.626;11.176;2022-12-29T07:38:27;76.35;;;43.30;;
16401;SDS011;8310;44.626;11.176;2022-12-29T07:40:56;70.63;;;38.17;;
16401;SDS011;8310;44.626;11.176;2022-12-29T07:43:25;70.40;;;39.90;;
16401;SDS011;8310;44.626;11.176;2022-12-29T07:45:53;73.68;;;40.30;;
16401;SDS011;8310;44.626;11.176;2022-12-29T07:48:24;69.95;;;41.97;;
16401;SDS011;8310;44.626;11.176;2022-12-29T07:50:53;72.18;;;40.22;;
16401;SDS011;8310;44.626;11.176;2022-12-29T07:53:21;66.88;;;38.75;;
16401;SDS011;8310;44.626;11.176;2022-12-29T07:55:49;73.00;;;40.15;;
16401;SDS011;8310;44.626;11.176;2022-12-29T07:58:17;69.03;;;39.65;;
16401;SDS011;8310;44.626;11.176;2022-12-29T08:00:45;74.38;;;40.65;;
16401;SDS011;8310;44.626;11.176;2022-12-29T08:03:14;70.40;;;40.15;;
16401;SDS011;8310;44.626;11.176;2022-12-29T08:05:42;70.10;;;39.97;;
16401;SDS011;8310;44.626;11.176;2022-12-29T08:08:12;65.82;;;38.65;;
16401;SDS011;8310;44.626;11.176;2022-12-29T08:10:39;75.28;;;41.13;;
16401;SDS011;8310;44.626;11.176;2022-12-29T08:13:10;69.72;;;40.17;;
16401;SDS011;8310;44.626;11.176;2022-12-29T08:15:38;70.10;;;40.28;;
16401;SDS011;8310;44.626;11.176;2022-12-29T08:18:05;68.13;;;38.30;;
16401;SDS011;8310;44.626;11.176;2022-12-29T08:20:33;67.00;;;40.13;;
16401;SDS011;8310;44.626;11.176;2022-12-29T08:23:00;69.43;;;39.67;;
16401;SDS011;8310;44.626;11.176;2022-12-29T08:25:57;62.78;;;37.33;;
16401;SDS011;8310;44.626;11.176;2022-12-29T08:28:26;74.53;;;40.97;;
16401;SDS011;8310;44.626;11.176;2022-12-29T08:30:54;69.63;;;39.47;;
16401;SDS011;8310;44.626;11.176;2022-12-29T08:33:23;71.30;;;40.55;;
16401;SDS011;8310;44.626;11.176;2022-12-29T08:35:51;70.03;;;39.33;;
16401;SDS011;8310;44.626;11.176;2022-12-29T08:38:19;71.50;;;40.42;;
16401;SDS011;8310;44.626;11.176;2022-12-29T08:40:47;68.88;;;39.95;;
16401;SDS011;8310;44.626;11.176;2022-12-29T08:43:15;64.63;;;39.38;;
16401;SDS011;8310;44.626;11.176;2022-12-29T08:45:47;65.30;;;38.55;;
16401;SDS011;8310;44.626;11.176;2022-12-29T08:48:14;66.85;;;40.10;;
16401;SDS011;8310;44.626;11.176;2022-12-29T08:50:44;74.50;;;40.22;;
16401;SDS011;8310;44.626;11.176;2022-12-29T08:53:13;73.57;;;41.28;;
16401;SDS011;8310;44.626;11.176;2022-12-29T08:55:41;71.88;;;41.10;;
16401;SDS011;8310;44.626;11.176;2022-12-29T08:58:08;71.68;;;39.78;;
16401;SDS011;8310;44.626;11.176;2022-12-29T09:00:41;73.70;;;41.08;;
16401;SDS011;8310;44.626;11.176;2022-12-29T09:03:09;67.65;;;39.42;;
16401;SDS011;8310;44.626;11.176;2022-12-29T09:05:38;69.32;;;41.97;;
16401;SDS011;8310;44.626;11.176;2022-12-29T09:08:06;68.07;;;41.70;;
16401;SDS011;8310;44.626;11.176;2022-12-29T09:10:34;74.93;;;41.10;;
16401;SDS011;8310;44.626;11.176;2022-12-29T09:13:02;75.47;;;42.20;;
16401;SDS011;8310;44.626;11.176;2022-12-29T09:15:29;73.43;;;40.08;;
16401;SDS011;8310;44.626;11.176;2022-12-29T09:17:59;75.55;;;41.25;;
16401;SDS011;8310;44.626;11.176;2022-12-29T09:20:27;72.18;;;39.78;;
16401;SDS011;8310;44.626;11.176;2022-12-29T09:22:55;66.43;;;39.22;;
16401;SDS011;8310;44.626;11.176;2022-12-29T09:25:23;70.32;;;39.85;;
16401;SDS011;8310;44.626;11.176;2022-12-29T09:27:51;74.07;;;40.65;;
16401;SDS011;8310;44.626;11.176;2022-12-29T09:30:20;68.90;;;42.08;;
16401;SDS011;8310;44.626;11.176;2022-12-29T09:32:51;71.40;;;39.08;;
16401;SDS011;8310;44.626;11.176;2022-12-29T09:35:20;71.90;;;39.65;;
16401;SDS011;8310;44.626;11.176;2022-12-29T09:37:48;70.70;;;40.00;;
16401;SDS011;8310;44.626;11.176;2022-12-29T09:40:26;70.03;;;39.20;;
16401;SDS011;8310;44.626;11.176;2022-12-29T09:43:11;71.40;;;39.17;;
16401;SDS011;8310;44.626;11.176;2022-12-29T09:45:52;69.35;;;38.45;;
16401;SDS011;8310;44.626;11.176;2022-12-29T09:48:27;65.95;;;38.28;;
16401;SDS011;8310;44.626;11.176;2022-12-29T09:51:02;67.78;;;38.10;;
16401;SDS011;8310;44.626;11.176;2022-12-29T09:53:40;69.15;;;39.20;;
16401;SDS011;8310;44.626;11.176;2022-12-29T09:56:13;67.85;;;38.00;;
16401;SDS011;8310;44.626;11.176;2022-12-29T09:58:42;70.97;;;40.97;;
16401;SDS011;8310;44.626;11.176;2022-12-29T10:01:22;63.47;;;36.05;;
16401;SDS011;8310;44.626;11.176;2022-12-29T10:03:55;66.63;;;38.75;;
16401;SDS011;8310;44.626;11.176;2022-12-29T10:06:26;59.35;;;35.97;;
16401;SDS011;8310;44.626;11.176;2022-12-29T10:09:01;59.05;;;35.70;;
16401;SDS011;8310;44.626;11.176;2022-12-29T10:11:44;61.17;;;35.20;;
16401;SDS011;8310;44.626;11.176;2022-12-29T10:14:30;58.40;;;34.88;;
16401;SDS011;8310;44.626;11.176;2022-12-29T10:17:10;63.60;;;36.55;;
16401;SDS011;8310;44.626;11.176;2022-12-29T10:22:48;63.50;;;36.53;;
16401;SDS011;8310;44.626;11.176;2022-12-29T10:25:32;63.55;;;36.85;;
16401;SDS011;8310;44.626;11.176;2022-12-29T10:28:05;65.10;;;36.28;;
16401;SDS011;8310;44.626;11.176;2022-12-29T10:30:40;62.78;;;36.33;;
16401;SDS011;8310;44.626;11.176;2022-12-29T10:33:11;64.13;;;36.67;;
16401;SDS011;8310;44.626;11.176;2022-12-29T10:35:43;63.33;;;36.17;;
16401;SDS011;8310;44.626;11.176;2022-12-29T10:38:14;65.07;;;37.83;;
16401;SDS011;8310;44.626;11.176;2022-12-29T10:40:48;60.65;;;34.10;;
16401;SDS011;8310;44.626;11.176;2022-12-29T10:43:24;63.35;;;34.65;;
16401;SDS011;8310;44.626;11.176;2022-12-29T10:45:54;54.80;;;32.30;;
16401;SDS011;8310;44.626;11.176;2022-12-29T10:48:24;55.55;;;32.05;;
16401;SDS011;8310;44.626;11.176;2022-12-29T10:50:55;54.08;;;33.60;;
16401;SDS011;8310;44.626;11.176;2022-12-29T10:53:33;55.15;;;32.47;;
16401;SDS011;8310;44.626;11.176;2022-12-29T10:56:06;49.03;;;28.60;;
16401;SDS011;8310;44.626;11.176;2022-12-29T10:58:42;41.70;;;27.90;;
16401;SDS011;8310;44.626;11.176;2022-12-29T11:01:12;42.85;;;27.45;;
16401;SDS011;8310;44.626;11.176;2022-12-29T11:03:44;44.63;;;27.42;;
16401;SDS011;8310;44.626;11.176;2022-12-29T11:06:24;43.85;;;28.23;;
16401;SDS011;8310;44.626;11.176;2022-12-29T11:08:57;43.72;;;27.65;;
16401;SDS011;8310;44.626;11.176;2022-12-29T11:11:32;42.72;;;27.95;;
16401;SDS011;8310;44.626;11.176;2022-12-29T11:14:02;43.20;;;26.95;;
16401;SDS011;8310;44.626;11.176;2022-12-29T11:16:38;44.13;;;26.88;;
16401;SDS011;8310;44.626;11.176;2022-12-29T11:19:14;43.58;;;27.05;;
16401;SDS011;8310;44.626;11.176;2022-12-29T11:21:48;40.95;;;26.67;;
16401;SDS011;8310;44.626;11.176;2022-12-29T11:24:22;42.47;;;26.10;;
16401;SDS011;8310;44.626;11.176;2022-12-29T11:26:52;40.78;;;27.13;;
16401;SDS011;8310;44.626;11.176;2022-12-29T11:29:23;43.97;;;27.33;;
16401;SDS011;8310;44.626;11.176;2022-12-29T11:31:53;38.22;;;25.55;;
16401;SDS011;8310;44.626;11.176;2022-12-29T11:34:22;38.70;;;25.13;;
16401;SDS011;8310;44.626;11.176;2022-12-29T11:36:52;39.30;;;25.20;;
16401;SDS011;8310;44.626;11.176;2022-12-29T11:39:27;38.72;;;25.30;;
16401;SDS011;8310;44.626;11.176;2022-12-29T11:42:04;39.25;;;24.75;;
16401;SDS011;8310;44.626;11.176;2022-12-29T11:44:41;38.58;;;24.70;;
16401;SDS011;8310;44.626;11.176;2022-12-29T11:47:13;35.17;;;23.13;;
16401;SDS011;8310;44.626;11.176;2022-12-29T11:49:49;37.10;;;24.20;;
16401;SDS011;8310;44.626;11.176;2022-12-29T11:52:23;36.30;;;24.23;;
16401;SDS011;8310;44.626;11.176;2022-12-29T11:54:55;36.38;;;24.25;;
16401;SDS011;8310;44.626;11.176;2022-12-29T11:57:24;35.08;;;23.15;;
16401;SDS011;8310;44.626;11.176;2022-12-29T11:59:53;39.60;;;23.58;;
16401;SDS011;8310;44.626;11.176;2022-12-29T12:02:30;38.80;;;23.67;;
16401;SDS011;8310;44.626;11.176;2022-12-29T12:05:04;36.58;;;24.05;;
16401;SDS011;8310;44.626;11.176;2022-12-29T12:07:42;37.05;;;23.83;;
16401;SDS011;8310;44.626;11.176;2022-12-29T12:10:19;35.25;;;23.92;;
16401;SDS011;8310;44.626;11.176;2022-12-29T12:12:56;32.85;;;22.48;;
16401;SDS011;8310;44.626;11.176;2022-12-29T12:15:34;36.70;;;24.38;;
16401;SDS011;8310;44.626;11.176;2022-12-29T12:18:05;38.28;;;23.60;;
16401;SDS011;8310;44.626;11.176;2022-12-29T12:20:41;35.63;;;23.17;;
16401;SDS011;8310;44.626;11.176;2022-12-29T12:23:14;33.72;;;23.50;;
16401;SDS011;8310;44.626;11.176;2022-12-29T12:25:59;38.13;;;23.90;;
16401;SDS011;8310;44.626;11.176;2022-12-29T12:28:36;34.78;;;22.30;;
16401;SDS011;8310;44.626;11.176;2022-12-29T12:31:13;47.00;;;34.97;;
16401;SDS011;8310;44.626;11.176;2022-12-29T12:33:46;33.45;;;23.25;;
16401;SDS011;8310;44.626;11.176;2022-12-29T12:36:22;61.17;;;50.65;;
16401;SDS011;8310;44.626;11.176;2022-12-29T12:39:05;42.30;;;28.60;;
16401;SDS011;8310;44.626;11.176;2022-12-29T12:41:43;33.88;;;24.48;;
16401;SDS011;8310;44.626;11.176;2022-12-29T12:44:22;41.08;;;25.15;;
16401;SDS011;8310;44.626;11.176;2022-12-29T12:47:11;41.58;;;27.00;;
16401;SDS011;8310;44.626;11.176;2022-12-29T12:50:02;36.35;;;24.45;;
16401;SDS011;8310;44.626;11.176;2022-12-29T12:52:42;34.25;;;23.20;;
16401;SDS011;8310;44.626;11.176;2022-12-29T12:55:34;37.30;;;24.05;;
16401;SDS011;8310;44.626;11.176;2022-12-29T12:58:29;35.42;;;22.50;;
16401;SDS011;8310;44.626;11.176;2022-12-29T13:01:10;36.53;;;25.52;;
16401;SDS011;8310;44.626;11.176;2022-12-29T13:03:49;35.50;;;24.95;;
16401;SDS011;8310;44.626;11.176;2022-12-29T13:06:33;37.97;;;24.20;;
16401;SDS011;8310;44.626;11.176;2022-12-29T13:09:16;35.75;;;22.52;;
16401;SDS011;8310;44.626;11.176;2022-12-29T13:11:57;38.20;;;22.83;;
16401;SDS011;8310;44.626;11.176;2022-12-29T13:14:47;34.35;;;23.02;;
16401;SDS011;8310;44.626;11.176;2022-12-29T13:17:24;36.58;;;24.48;;
16401;SDS011;8310;44.626;11.176;2022-12-29T13:20:01;33.65;;;22.75;;
16401;SDS011;8310;44.626;11.176;2022-12-29T13:22:36;34.95;;;22.38;;
16401;SDS011;8310;44.626;11.176;2022-12-29T13:25:17;37.20;;;22.58;;
16401;SDS011;8310;44.626;11.176;2022-12-29T13:27:59;31.38;;;21.60;;
16401;SDS011;8310;44.626;11.176;2022-12-29T13:30:34;37.22;;;22.98;;
16401;SDS011;8310;44.626;11.176;2022-12-29T13:33:13;33.75;;;22.40;;
16401;SDS011;8310;44.626;11.176;2022-12-29T13:35:56;32.30;;;22.33;;
16401;SDS011;8310;44.626;11.176;2022-12-29T13:38:29;35.00;;;22.33;;
16401;SDS011;8310;44.626;11.176;2022-12-29T13:41:01;31.02;;;22.25;;
16401;SDS011;8310;44.626;11.176;2022-12-29T13:43:32;31.02;;;21.90;;
16401;SDS011;8310;44.626;11.176;2022-12-29T13:46:04;34.67;;;22.23;;
16401;SDS011;8310;44.626;11.176;2022-12-29T13:48:37;34.97;;;23.13;;
16401;SDS011;8310;44.626;11.176;2022-12-29T13:51:10;34.65;;;22.27;;
16401;SDS011;8310;44.626;11.176;2022-12-29T13:53:42;33.63;;;23.15;;
16401;SDS011;8310;44.626;11.176;2022-12-29T13:56:23;34.05;;;22.55;;
16401;SDS011;8310;44.626;11.176;2022-12-29T13:58:57;32.08;;;21.20;;
16401;SDS011;8310;44.626;11.176;2022-12-29T14:01:33;31.85;;;21.75;;
16401;SDS011;8310;44.626;11.176;2022-12-29T14:04:08;32.03;;;21.17;;
16401;SDS011;8310;44.626;11.176;2022-12-29T14:06:38;34.63;;;22.05;;
16401;SDS011;8310;44.626;11.176;2022-12-29T14:12:01;38.22;;;23.83;;
16401;SDS011;8310;44.626;11.176;2022-12-29T14:14:46;34.75;;;22.85;;
16401;SDS011;8310;44.626;11.176;2022-12-29T14:17:18;36.42;;;22.25;;
16401;SDS011;8310;44.626;11.176;2022-12-29T14:19:51;34.15;;;21.45;;
16401;SDS011;8310;44.626;11.176;2022-12-29T14:22:24;34.97;;;22.20;;
16401;SDS011;8310;44.626;11.176;2022-12-29T14:24:53;33.60;;;22.30;;
16401;SDS011;8310;44.626;11.176;2022-12-29T14:33:18;33.63;;;22.00;;
16401;SDS011;8310;44.626;11.176;2022-12-29T14:35:48;37.28;;;23.13;;
16401;SDS011;8310;44.626;11.176;2022-12-29T14:38:18;37.60;;;23.65;;
16401;SDS011;8310;44.626;11.176;2022-12-29T14:43:59;31.38;;;21.85;;
16401;SDS011;8310;44.626;11.176;2022-12-29T14:46:42;35.45;;;22.77;;
16401;SDS011;8310;44.626;11.176;2022-12-29T14:49:20;34.83;;;23.58;;
16401;SDS011;8310;44.626;11.176;2022-12-29T14:51:50;36.45;;;23.67;;
16401;SDS011;8310;44.626;11.176;2022-12-29T14:57:28;32.67;;;21.33;;
16401;SDS011;8310;44.626;11.176;2022-12-29T15:00:08;36.65;;;22.55;;
16401;SDS011;8310;44.626;11.176;2022-12-29T15:02:45;34.70;;;22.73;;
16401;SDS011;8310;44.626;11.176;2022-12-29T15:05:28;33.45;;;21.88;;
16401;SDS011;8310;44.626;11.176;2022-12-29T15:07:59;33.45;;;22.92;;
16401;SDS011;8310;44.626;11.176;2022-12-29T15:10:32;34.20;;;22.50;;
16401;SDS011;8310;44.626;11.176;2022-12-29T15:13:05;35.97;;;22.73;;